Time;durP1;ratioP1;P1;durP2;ratioP2;P2;SDS_P1;SDS_P2;PMS_P1;PMS_P2;Temp;Humidity;BMP_temperature;BMP_pressure;BME280_temperature;BME280_humidity;BME280_pressure;Samples;Min_cycle;Max_cycle;Signal;HPM_P1;HPM_P2
2022/03/18 00:02:21;;;;;;;8.57;8.07;;;;;;;-5.53;61.91;103179.28;5045495;28;20017;-62
2022/03/18 00:04:47;;;;;;;8.65;8.15;;;;;;;-5.49;62.13;103181.00;5029599;28;20110;-62
2022/03/18 00:07:15;;;;;;;8.73;8.23;;;;;;;-5.40;62.02;103183.53;5011901;28;20457;-62
2022/03/18 00:09:41;;;;;;;8.45;7.95;;;;;;;-5.52;61.65;103175.81;5026703;28;20475;-62
2022/03/18 00:12:10;;;;;;;9.20;8.60;;;;;;;-5.52;61.56;103187.00;5036248;28;20171;-62
2022/03/18 00:14:39;;;;;;;8.38;7.88;;;;;;;-5.49;62.93;103194.78;5030488;28;20037;-62
2022/03/18 00:17:04;;;;;;;8.75;8.25;;;;;;;-5.53;62.70;103195.63;5031465;28;20048;-62
2022/03/18 00:19:31;;;;;;;8.43;7.93;;;;;;;-5.63;62.59;103191.38;5030250;28;20115;-62
2022/03/18 00:22:01;;;;;;;8.57;8.07;;;;;;;-5.68;63.17;103185.38;5031536;28;20030;-62
2022/03/18 00:24:28;;;;;;;8.82;8.32;;;;;;;-5.65;62.91;103196.56;5016666;28;20607;-63
2022/03/18 00:26:53;;;;;;;8.45;7.95;;;;;;;-5.73;61.85;103200.88;5021301;28;20104;-62
2022/03/18 00:29:19;;;;;;;9.20;8.60;;;;;;;-5.78;61.86;103199.19;5030101;28;20104;-62
2022/03/18 00:31:44;;;;;;;8.45;7.95;;;;;;;-5.81;61.92;103199.19;5030022;28;20025;-61
2022/03/18 00:34:10;;;;;;;9.38;8.77;;;;;;;-5.89;62.22;103192.31;5030023;28;20037;-61
2022/03/18 00:36:37;;;;;;;9.10;8.57;;;;;;;-5.81;62.51;103200.03;5031477;28;20036;-63
2022/03/18 00:39:03;;;;;;;8.98;8.48;;;;;;;-5.83;62.98;103199.19;5017453;28;20017;-62
2022/03/18 00:41:29;;;;;;;8.57;8.07;;;;;;;-5.80;63.38;103196.63;5031158;28;20050;-62
2022/03/18 00:43:54;;;;;;;10.43;9.73;;;;;;;-6.23;66.08;103191.56;5030829;28;20026;-61
2022/03/18 00:46:22;;;;;;;9.23;8.68;;;;;;;-6.15;66.65;103186.38;5031247;28;20021;-62
2022/03/18 00:54:17;;;;;;;9.05;8.55;;;;;;;-6.20;67.50;103190.69;5058078;28;20608;-64
2022/03/18 00:56:43;;;;;;;8.77;8.27;;;;;;;-6.20;67.51;103193.28;5031088;28;20045;-63
2022/03/18 00:59:09;;;;;;;8.60;8.10;;;;;;;-6.17;66.24;103198.44;5031052;28;20025;-63
2022/03/18 01:01:35;;;;;;;9.13;8.63;;;;;;;-6.23;66.25;103195.88;5034345;28;20304;-62
2022/03/18 01:04:01;;;;;;;9.13;8.63;;;;;;;-6.20;65.23;103185.53;5031264;28;20029;-62
2022/03/18 01:06:27;;;;;;;9.30;8.75;;;;;;;-6.18;64.74;103194.13;5030971;28;20060;-61
2022/03/18 01:08:53;;;;;;;8.80;8.30;;;;;;;-6.32;64.09;103176.06;5046551;28;20445;-61
2022/03/18 01:11:18;;;;;;;8.80;8.30;;;;;;;-6.24;63.99;103194.13;5036026;28;20030;-63
2022/03/18 01:13:44;;;;;;;9.13;8.63;;;;;;;-6.23;63.62;103201.03;5029917;28;20047;-62
2022/03/18 01:16:09;;;;;;;9.05;8.55;;;;;;;-6.31;63.93;103197.59;5031435;28;20468;-61
2022/03/18 01:18:35;;;;;;;11.50;10.73;;;;;;;-6.30;64.02;103204.50;5031363;28;20036;-62
2022/03/18 01:21:00;;;;;;;9.95;9.35;;;;;;;-6.36;64.35;103199.31;5033231;28;20030;-62
2022/03/18 01:23:26;;;;;;;9.85;9.32;;;;;;;-6.40;64.78;103208.78;5033846;28;20045;-61
2022/03/18 01:25:51;;;;;;;9.38;8.88;;;;;;;-6.43;64.85;103204.50;5033663;28;20101;-62
2022/03/18 01:28:17;;;;;;;9.68;9.18;;;;;;;-6.46;65.67;103208.81;5034757;28;20056;-62
2022/03/18 01:30:42;;;;;;;10.95;10.27;;;;;;;-6.52;65.80;103198.47;5034829;28;20040;-62
2022/03/18 01:33:08;;;;;;;10.18;9.57;;;;;;;-6.43;66.12;103207.06;5034644;28;20373;-62
2022/03/18 01:35:33;;;;;;;9.77;9.27;;;;;;;-6.45;66.38;103207.94;5038321;28;20110;-62
2022/03/18 01:37:59;;;;;;;10.30;9.77;;;;;;;-6.42;66.20;103200.19;5034666;28;20135;-62
2022/03/18 01:40:24;;;;;;;9.88;9.38;;;;;;;-6.47;65.79;103201.91;5033495;28;20025;-62
2022/03/18 01:42:50;;;;;;;10.40;9.80;;;;;;;-6.46;65.66;103203.66;5034399;28;20057;-62
2022/03/18 01:45:16;;;;;;;10.10;9.52;;;;;;;-6.48;65.29;103213.94;5033331;28;20029;-62
2022/03/18 01:47:43;;;;;;;10.70;10.10;;;;;;;-6.53;65.30;103202.78;5034396;28;20025;-62
2022/03/18 01:50:13;;;;;;;11.07;10.48;;;;;;;-6.48;65.45;103215.66;5034756;28;20037;-61
2022/03/18 01:52:40;;;;;;;10.43;9.82;;;;;;;-6.52;65.77;103220.00;5026581;28;20481;-62
2022/03/18 01:55:07;;;;;;;9.77;9.27;;;;;;;-6.51;65.68;103224.28;5022433;28;20049;-62
2022/03/18 01:57:32;;;;;;;9.82;9.32;;;;;;;-6.56;65.94;103223.41;5034516;28;20503;-62
2022/03/18 01:59:59;;;;;;;10.52;9.93;;;;;;;-6.78;65.83;103194.13;5052945;28;20061;-62
2022/03/18 02:02:25;;;;;;;10.32;9.73;;;;;;;-6.56;66.14;103228.56;5054296;28;20108;-62
2022/03/18 02:04:51;;;;;;;9.80;9.30;;;;;;;-6.61;65.73;103213.94;5051887;28;20036;-62
2022/03/18 02:07:17;;;;;;;10.43;9.82;;;;;;;-6.60;65.79;103223.44;5033345;28;20480;-63
2022/03/18 02:09:44;;;;;;;10.98;10.35;;;;;;;-6.60;65.85;103224.28;5034254;28;20152;-62
2022/03/18 02:12:11;;;;;;;9.95;9.45;;;;;;;-6.64;66.02;103229.44;5033816;28;20428;-62
2022/03/18 02:14:42;;;;;;;11.60;10.90;;;;;;;-6.62;66.58;103233.72;5034026;28;20559;-63
2022/03/18 02:17:10;;;;;;;10.48;9.93;;;;;;;-6.64;66.47;103225.13;5033979;28;20029;-61
2022/03/18 02:19:37;;;;;;;9.88;9.38;;;;;;;-6.70;66.96;103225.97;5032717;28;20507;-61
2022/03/18 02:22:08;;;;;;;10.95;10.25;;;;;;;-6.68;67.31;103229.44;5033851;28;20097;-61
2022/03/18 02:24:35;;;;;;;10.43;9.82;;;;;;;-6.65;67.60;103232.88;5032501;28;20060;-61
2022/03/18 02:27:00;;;;;;;10.40;9.80;;;;;;;-6.79;67.97;103227.69;5033028;28;20116;-62
2022/03/18 02:29:27;;;;;;;10.40;9.80;;;;;;;-6.82;69.36;103240.59;5033804;28;20475;-61
2022/03/18 02:31:53;;;;;;;11.55;10.85;;;;;;;-6.81;69.72;103247.50;5040730;28;20110;-62
2022/03/18 02:34:19;;;;;;;10.15;9.60;;;;;;;-6.88;70.35;103235.44;5053647;28;20060;-61
2022/03/18 02:36:45;;;;;;;10.77;10.18;;;;;;;-6.84;70.24;103238.00;5049750;28;20022;-61
2022/03/18 02:39:10;;;;;;;11.13;10.43;;;;;;;-6.88;70.08;103245.75;5031249;28;20147;-62
2022/03/18 02:41:36;;;;;;;10.45;9.93;;;;;;;-6.81;70.48;103243.19;5032145;28;20035;-63
2022/03/18 02:44:01;;;;;;;11.20;10.52;;;;;;;-6.84;70.71;103250.91;5027757;28;20119;-62
2022/03/18 02:46:27;;;;;;;10.63;10.02;;;;;;;-6.92;70.66;103246.59;5013721;28;20527;-63
2022/03/18 02:48:53;;;;;;;10.75;10.15;;;;;;;-6.89;71.63;103244.91;5013489;28;20030;-63
2022/03/18 02:51:19;;;;;;;10.68;10.07;;;;;;;-6.89;71.16;103249.19;5021252;28;20361;-62
2022/03/18 02:53:45;;;;;;;10.25;9.68;;;;;;;-6.97;71.63;103244.88;5040501;28;20028;-63
2022/03/18 02:56:12;;;;;;;10.85;10.25;;;;;;;-6.97;71.72;103251.75;5036107;28;20056;-62
2022/03/18 02:58:38;;;;;;;10.25;9.75;;;;;;;-6.97;71.57;103244.88;5042059;28;20040;-62
2022/03/18 03:01:03;;;;;;;11.35;10.65;;;;;;;-6.98;71.45;103250.91;5052089;28;20025;-61
2022/03/18 03:03:30;;;;;;;10.52;9.93;;;;;;;-7.16;71.29;103214.72;5053082;28;20031;-62
2022/03/18 03:08:40;;;;;;;9.95;9.45;;;;;;;-6.97;70.87;103255.19;5032195;28;20040;-62
2022/03/18 03:11:06;;;;;;;11.15;10.45;;;;;;;-7.13;70.81;103239.63;5036426;28;20032;-63
2022/03/18 03:13:33;;;;;;;10.75;10.15;;;;;;;-7.01;70.82;103275.81;5032738;28;20045;-62
2022/03/18 03:15:59;;;;;;;10.60;10.00;;;;;;;-7.04;70.12;103274.09;5065267;28;20171;-61
2022/03/18 03:18:26;;;;;;;11.27;10.68;;;;;;;-7.07;69.85;103279.22;5032864;28;20444;-62
2022/03/18 03:20:51;;;;;;;10.93;10.32;;;;;;;-7.11;70.37;103286.97;5032540;28;20384;-62
2022/03/18 03:23:18;;;;;;;11.52;10.85;;;;;;;-7.11;70.16;103277.50;5015063;28;20025;-62
2022/03/18 03:25:44;;;;;;;10.88;10.27;;;;;;;-7.11;70.05;103276.66;5032691;28;20033;-63
2022/03/18 03:28:10;;;;;;;11.57;10.88;;;;;;;-7.13;70.14;103276.63;5021712;28;20029;-65
2022/03/18 03:30:35;;;;;;;11.80;11.10;;;;;;;-7.13;69.74;103283.50;5032505;28;20094;-62
2022/03/18 03:33:01;;;;;;;11.02;10.43;;;;;;;-7.16;70.04;103286.94;5031798;28;20021;-62
2022/03/18 03:35:27;;;;;;;11.18;10.57;;;;;;;-7.16;69.76;103294.69;5032516;28;20036;-63
2022/03/18 03:37:52;;;;;;;11.63;10.93;;;;;;;-7.25;69.91;103303.25;5032291;28;20048;-61
2022/03/18 03:40:19;;;;;;;12.57;11.77;;;;;;;-7.27;70.12;103294.63;5024229;28;20111;-62
2022/03/18 03:42:45;;;;;;;11.27;10.57;;;;;;;-7.27;69.81;103298.91;5028746;28;20393;-62
2022/03/18 03:45:12;;;;;;;11.15;10.55;;;;;;;-7.24;69.36;103301.53;5031278;28;20056;-62
2022/03/18 03:47:40;;;;;;;10.82;10.23;;;;;;;-7.29;69.83;103296.31;5032080;28;20037;-62
2022/03/18 03:50:07;;;;;;;12.02;11.32;;;;;;;-7.23;69.69;103298.09;5032688;28;20421;-62
2022/03/18 03:52:34;;;;;;;12.75;11.95;;;;;;;-7.26;69.91;103298.94;5032009;28;20033;-62
2022/03/18 03:54:59;;;;;;;10.55;10.05;;;;;;;-7.27;69.81;103304.94;5031790;28;20049;-61
2022/03/18 03:57:25;;;;;;;11.18;10.55;;;;;;;-7.30;70.48;103299.75;5032052;28;20463;-61
2022/03/18 03:59:50;;;;;;;11.77;11.07;;;;;;;-7.32;70.49;103300.63;5050854;28;20108;-62
2022/03/18 04:02:16;;;;;;;11.00;10.40;;;;;;;-7.38;70.65;103300.59;5035513;28;20034;-61
2022/03/18 04:04:41;;;;;;;11.35;10.75;;;;;;;-7.28;69.96;103304.91;5030416;28;20065;-62
2022/03/18 04:07:08;;;;;;;11.18;10.57;;;;;;;-7.28;69.96;103307.50;5015146;28;20401;-61
2022/03/18 04:09:33;;;;;;;11.23;10.52;;;;;;;-7.24;69.67;103299.78;5035994;28;20401;-62
2022/03/18 04:12:00;;;;;;;10.98;10.38;;;;;;;-7.26;70.32;103303.25;5032069;28;20028;-62
2022/03/18 04:14:25;;;;;;;11.50;10.82;;;;;;;-7.21;69.58;103318.72;5031571;28;20025;-62
2022/03/18 04:16:51;;;;;;;10.95;10.35;;;;;;;-7.23;69.69;103318.72;5031638;28;20033;-62
2022/03/18 04:19:17;;;;;;;10.95;10.43;;;;;;;-7.22;69.54;103317.84;5029440;28;20412;-63
2022/03/18 04:21:43;;;;;;;10.55;9.98;;;;;;;-7.18;69.53;103316.16;5031414;28;20029;-63
2022/03/18 04:24:09;;;;;;;11.52;10.90;;;;;;;-6.99;69.21;103315.38;5037294;28;20112;-61
2022/03/18 04:26:35;;;;;;;11.50;10.80;;;;;;;-6.64;68.29;103323.22;5049457;28;20033;-63
2022/03/18 04:29:00;;;;;;;10.55;9.95;;;;;;;-6.31;67.03;103325.03;5049615;28;20083;-62
2022/03/18 04:31:26;;;;;;;10.18;9.57;;;;;;;-6.18;66.73;103326.75;5029280;28;20167;-62
2022/03/18 04:33:52;;;;;;;9.10;8.60;;;;;;;-5.90;65.63;103314.66;5038483;28;20083;-62
2022/03/18 04:36:18;;;;;;;8.98;8.48;;;;;;;-5.48;64.95;103338.75;5030618;28;20029;-62
2022/03/18 04:38:43;;;;;;;9.48;8.88;;;;;;;-5.35;64.65;103335.28;5043444;28;20029;-63
2022/03/18 04:41:09;;;;;;;8.52;8.02;;;;;;;-4.93;63.07;103341.16;5030046;28;20030;-64
2022/03/18 04:43:34;;;;;;;7.88;7.47;;;;;;;-4.69;62.39;103335.03;5031223;28;20013;-63
2022/03/18 04:46:00;;;;;;;8.32;7.82;;;;;;;-4.24;60.43;103341.66;5029280;28;20091;-63
2022/03/18 04:48:25;;;;;;;7.40;7.00;;;;;;;-3.88;59.82;103342.25;5029955;28;20038;-63
2022/03/18 04:50:51;;;;;;;8.30;7.80;;;;;;;-3.39;58.64;103349.56;5024405;28;20045;-62
2022/03/18 04:53:16;;;;;;;7.07;6.68;;;;;;;-3.04;56.51;103346.56;5030695;28;20164;-62
2022/03/18 04:55:44;;;;;;;8.45;7.95;;;;;;;-2.61;55.39;103346.91;5028734;28;20049;-63
2022/03/18 04:58:10;;;;;;;7.45;7.05;;;;;;;-1.91;55.17;103347.56;5035985;28;20035;-64
2022/03/18 05:00:36;;;;;;;7.72;7.32;;;;;;;-1.16;52.15;103347.09;5031278;28;20029;-65
2022/03/18 05:03:02;;;;;;;7.13;6.72;;;;;;;0.61;46.98;103347.34;5029200;28;20030;-64
2022/03/18 05:05:28;;;;;;;8.10;7.60;;;;;;;1.89;44.59;103345.28;5030149;28;20025;-62
2022/03/18 05:07:53;;;;;;;8.27;7.78;;;;;;;3.03;41.16;103353.59;5035215;28;20136;-63
2022/03/18 05:10:19;;;;;;;7.45;7.05;;;;;;;3.68;37.99;103359.88;5038164;28;20100;-63
2022/03/18 05:12:45;;;;;;;7.85;7.45;;;;;;;4.35;37.21;103354.47;5034900;28;20029;-64
2022/03/18 05:15:11;;;;;;;8.15;7.75;;;;;;;5.04;35.47;103362.81;5037939;28;20048;-64
2022/03/18 05:17:39;;;;;;;7.97;7.57;;;;;;;5.96;34.38;103366.44;5054551;28;20419;-63
2022/03/18 05:20:07;;;;;;;7.82;7.43;;;;;;;6.43;33.63;103356.16;5041992;28;20022;-63
2022/03/18 05:22:32;;;;;;;7.93;7.53;;;;;;;6.72;32.59;103370.47;5019311;28;20052;-63
2022/03/18 05:24:59;;;;;;;7.88;7.47;;;;;;;7.81;30.49;103372.50;5051483;28;20388;-63
2022/03/18 05:27:25;;;;;;;7.93;7.53;;;;;;;6.97;30.20;103374.47;5047623;28;20095;-62
2022/03/18 05:29:51;;;;;;;8.10;7.70;;;;;;;7.20;29.54;103371.47;5054502;28;20404;-63
2022/03/18 05:32:19;;;;;;;7.30;7.00;;;;;;;8.68;29.06;103373.56;5050857;28;20022;-62
2022/03/18 05:34:45;;;;;;;7.60;7.20;;;;;;;8.16;28.50;103376.63;5034638;28;20048;-62
2022/03/18 05:37:11;;;;;;;8.75;8.30;;;;;;;8.67;27.45;103374.50;5030836;28;20079;-63
2022/03/18 05:39:37;;;;;;;7.72;7.35;;;;;;;9.67;26.44;103379.72;5050198;28;20091;-62
2022/03/18 05:42:03;;;;;;;8.38;7.97;;;;;;;9.80;26.63;103382.44;5034103;28;20080;-63
2022/03/18 05:44:28;;;;;;;7.55;7.25;;;;;;;10.56;26.13;103387.97;5034171;28;20351;-62
2022/03/18 05:46:54;;;;;;;8.10;7.70;;;;;;;10.41;25.09;103392.50;5046239;28;20023;-63
2022/03/18 05:49:19;;;;;;;9.48;8.98;;;;;;;10.87;25.49;103394.69;5044285;28;20463;-62
2022/03/18 05:51:46;;;;;;;8.80;8.40;;;;;;;12.20;23.95;103406.38;5039551;28;20036;-63
2022/03/18 05:54:12;;;;;;;7.60;7.30;;;;;;;11.03;24.32;103402.44;5035961;28;20036;-63
2022/03/18 05:56:53;;;;;;;8.20;7.80;;;;;;;12.15;23.64;103411.19;5053801;28;20056;-63
2022/03/18 05:59:27;;;;;;;8.10;7.70;;;;;;;11.67;23.39;103404.94;5054166;28;20033;-63
2022/03/18 06:01:54;;;;;;;7.72;7.43;;;;;;;11.61;23.77;103408.94;5037620;28;20053;-63
2022/03/18 06:04:20;;;;;;;7.47;7.18;;;;;;;12.16;22.83;103416.38;5038951;28;20082;-62
2022/03/18 06:06:48;;;;;;;7.90;7.60;;;;;;;11.76;23.25;103409.63;5032730;28;20488;-64
2022/03/18 06:11:59;;;;;;;7.75;7.45;;;;;;;12.80;22.24;103409.81;5049541;28;20031;-64
2022/03/18 06:14:26;;;;;;;7.78;7.47;;;;;;;13.18;21.96;103420.97;5034456;28;20481;-64
2022/03/18 06:16:54;;;;;;;7.45;7.15;;;;;;;13.40;21.52;103419.31;5034004;28;20100;-65
2022/03/18 06:19:21;;;;;;;7.75;7.45;;;;;;;12.60;22.81;103408.66;5047165;28;20120;-65
2022/03/18 06:21:47;;;;;;;9.52;9.10;;;;;;;12.93;21.98;103414.06;5033644;28;20106;-64
2022/03/18 06:24:14;;;;;;;8.45;8.05;;;;;;;13.17;22.33;103408.63;5033433;28;20469;-64
2022/03/18 06:26:40;;;;;;;7.75;7.45;;;;;;;13.81;21.47;103410.63;5033455;28;20045;-64
2022/03/18 06:29:06;;;;;;;8.00;7.68;;;;;;;13.33;21.25;103405.59;5026567;28;20049;-64
2022/03/18 06:31:34;;;;;;;7.70;7.40;;;;;;;14.09;20.96;103404.69;5013925;28;20025;-64
2022/03/18 06:34:02;;;;;;;7.90;7.60;;;;;;;12.83;21.71;103402.41;5013845;28;20104;-64
2022/03/18 06:36:28;;;;;;;7.97;7.68;;;;;;;13.92;21.31;103399.91;5022443;28;20079;-64
2022/03/18 06:38:54;;;;;;;7.70;7.40;;;;;;;13.12;22.26;103397.47;5033280;28;20030;-64
2022/03/18 06:41:19;;;;;;;7.70;7.40;;;;;;;13.10;22.06;103398.56;5033420;28;20025;-64
2022/03/18 06:43:47;;;;;;;7.30;7.00;;;;;;;13.99;21.20;103406.44;5021918;28;20429;-64
2022/03/18 06:46:14;;;;;;;8.35;7.95;;;;;;;13.12;21.97;103396.63;5013524;28;20408;-65
2022/03/18 06:48:40;;;;;;;7.30;7.00;;;;;;;14.13;21.24;103396.44;5045058;28;20029;-64
2022/03/18 06:51:05;;;;;;;7.60;7.30;;;;;;;13.30;21.99;103397.88;5026788;28;20481;-65
2022/03/18 06:53:31;;;;;;;7.20;6.90;;;;;;;13.55;22.04;103405.56;5033352;28;20029;-65
2022/03/18 06:55:56;;;;;;;7.50;7.20;;;;;;;14.12;21.37;103405.44;5050715;28;20052;-65
2022/03/18 06:58:22;;;;;;;7.18;6.88;;;;;;;13.13;22.04;103400.97;5031217;28;20390;-64
2022/03/18 07:00:47;;;;;;;7.22;6.93;;;;;;;13.97;21.93;103408.38;5033179;28;20035;-64
2022/03/18 07:03:13;;;;;;;7.60;7.30;;;;;;;13.80;21.90;103414.25;5033627;28;20117;-64
2022/03/18 07:05:39;;;;;;;7.22;6.93;;;;;;;14.01;21.85;103414.31;5015170;28;20032;-64
2022/03/18 07:08:05;;;;;;;7.35;7.05;;;;;;;13.31;22.96;103415.56;5028617;28;20492;-65
2022/03/18 07:10:31;;;;;;;7.88;7.57;;;;;;;14.02;22.26;103416.84;5044068;28;20136;-64
2022/03/18 07:12:56;;;;;;;8.05;7.75;;;;;;;13.73;21.14;103408.56;5019523;28;20484;-64
2022/03/18 07:15:22;;;;;;;7.68;7.38;;;;;;;14.12;21.16;103414.28;5031280;28;20036;-64
2022/03/18 07:17:59;;;;;;;7.60;7.30;;;;;;;14.92;20.43;103403.06;5032324;28;20088;-64
2022/03/18 07:20:30;;;;;;;8.02;7.72;;;;;;;15.68;19.76;103412.34;5032780;28;20478;-63
2022/03/18 07:23:08;;;;;;;7.80;7.50;;;;;;;13.91;21.89;103416.91;5032302;28;20399;-64
2022/03/18 07:25:36;;;;;;;7.80;7.50;;;;;;;14.48;20.93;103407.72;5024249;28;20026;-65
2022/03/18 07:28:02;;;;;;;7.60;7.30;;;;;;;14.83;21.30;103407.34;5012757;28;20474;-64
2022/03/18 07:30:28;;;;;;;7.50;7.20;;;;;;;15.05;20.85;103402.81;5013063;28;20022;-65
2022/03/18 07:32:54;;;;;;;7.57;7.28;;;;;;;15.17;19.97;103407.09;5023220;28;20048;-64
2022/03/18 07:35:19;;;;;;;7.90;7.60;;;;;;;15.54;19.82;103415.38;5032555;28;20029;-63
2022/03/18 07:37:45;;;;;;;7.82;7.53;;;;;;;16.01;19.59;103410.25;5032367;28;20040;-64
2022/03/18 07:40:11;;;;;;;7.70;7.40;;;;;;;16.50;19.87;103403.06;5019314;28;20125;-64
2022/03/18 07:42:41;;;;;;;7.82;7.53;;;;;;;16.40;19.91;103412.97;5027679;28;20642;-63
2022/03/18 07:45:08;;;;;;;7.93;7.63;;;;;;;15.93;19.83;103412.81;5032126;28;20025;-64
2022/03/18 07:47:33;;;;;;;7.72;7.43;;;;;;;7.12;28.23;103411.47;5032200;28;20041;-64
2022/03/18 07:49:59;;;;;;;8.00;7.70;;;;;;;7.75;27.39;103400.09;5032058;28;20469;-64
2022/03/18 07:52:26;;;;;;;7.85;7.55;;;;;;;5.79;29.67;103401.47;5031435;28;20118;-64
2022/03/18 07:54:51;;;;;;;8.45;8.05;;;;;;;4.10;32.76;103400.16;5026471;28;20057;-64
2022/03/18 07:57:18;;;;;;;9.05;8.65;;;;;;;8.65;28.23;103397.53;5031918;28;20400;-65
2022/03/18 07:59:43;;;;;;;8.18;7.78;;;;;;;11.57;22.95;103396.81;5030428;28;20033;-64
2022/03/18 08:02:10;;;;;;;7.60;7.30;;;;;;;10.95;23.94;103396.81;5031847;28;20036;-63
2022/03/18 08:04:36;;;;;;;7.65;7.35;;;;;;;13.31;21.72;103394.22;5030578;28;20037;-65
2022/03/18 08:07:03;;;;;;;7.90;7.60;;;;;;;11.98;23.40;103396.47;5029192;28;20055;-64
2022/03/18 08:09:28;;;;;;;7.70;7.40;;;;;;;13.92;21.05;103399.06;5026306;28;20009;-64
2022/03/18 08:11:54;;;;;;;7.78;7.47;;;;;;;13.34;21.50;103377.13;5030110;28;20529;-64
2022/03/18 08:14:20;;;;;;;8.75;8.35;;;;;;;13.85;21.06;103390.72;5031531;28;20422;-64
2022/03/18 08:16:45;;;;;;;7.90;7.60;;;;;;;13.39;20.47;103388.28;5031856;28;20029;-65
2022/03/18 08:19:12;;;;;;;7.63;7.32;;;;;;;15.12;19.88;103388.78;5032446;28;20030;-63
2022/03/18 08:21:37;;;;;;;8.30;7.90;;;;;;;15.51;20.00;103396.09;5025635;28;20037;-64
2022/03/18 08:24:04;;;;;;;8.88;8.48;;;;;;;14.84;19.97;103392.19;5011817;28;20022;-65
2022/03/18 08:26:29;;;;;;;8.10;7.80;;;;;;;13.81;19.54;103394.63;5011584;28;20114;-64
2022/03/18 08:28:55;;;;;;;7.78;7.47;;;;;;;9.89;24.89;103374.72;5010866;28;20072;-64
2022/03/18 08:31:20;;;;;;;8.27;7.88;;;;;;;13.56;21.84;103382.41;5011522;28;20025;-64
2022/03/18 08:33:46;;;;;;;8.38;7.97;;;;;;;15.18;20.18;103385.56;5011774;28;20080;-64
2022/03/18 08:36:14;;;;;;;7.88;7.57;;;;;;;15.41;19.70;103374.66;5011221;28;20030;-65
2022/03/18 08:38:40;;;;;;;7.78;7.47;;;;;;;4.67;30.40;103359.19;5011895;28;20087;-64
2022/03/18 08:41:05;;;;;;;8.30;7.90;;;;;;;10.29;23.98;103365.97;5014894;28;20367;-64
2022/03/18 08:43:31;;;;;;;8.07;7.68;;;;;;;13.06;22.05;103362.44;5031470;28;20037;-64
2022/03/18 08:45:57;;;;;;;8.52;8.13;;;;;;;13.30;21.98;103355.22;5031187;28;20084;-66
2022/03/18 08:48:22;;;;;;;8.90;8.50;;;;;;;12.66;22.73;103361.09;5031333;28;20022;-64
2022/03/18 08:50:48;;;;;;;8.32;7.93;;;;;;;10.66;23.31;103351.88;5026100;28;20029;-64
2022/03/18 08:53:13;;;;;;;8.98;8.57;;;;;;;11.50;22.92;103355.66;5030733;28;20533;-63
2022/03/18 08:55:40;;;;;;;8.13;7.72;;;;;;;10.78;23.21;103358.13;5031915;28;20045;-64
2022/03/18 08:58:07;;;;;;;8.80;8.40;;;;;;;10.52;23.43;103344.03;5031934;28;20203;-63
2022/03/18 09:00:34;;;;;;;9.23;8.73;;;;;;;9.06;25.02;103349.16;5030923;28;20025;-63
2022/03/18 09:02:59;;;;;;;9.07;8.57;;;;;;;10.24;24.38;103343.25;5031284;28;20025;-63
2022/03/18 09:05:24;;;;;;;9.32;8.82;;;;;;;11.51;22.99;103357.38;5018222;28;20435;-63
2022/03/18 09:07:50;;;;;;;8.32;7.93;;;;;;;10.08;23.69;103342.53;5031287;28;20770;-64
2022/03/18 09:10:15;;;;;;;9.15;8.65;;;;;;;9.92;23.74;103347.16;5041426;28;20025;-65
2022/03/18 09:12:45;;;;;;;8.57;8.15;;;;;;;9.57;24.75;103339.72;5050826;28;20029;-64
2022/03/18 09:15:10;;;;;;;9.00;8.50;;;;;;;10.95;23.54;103341.88;5050851;28;20029;-63
2022/03/18 09:17:36;;;;;;;8.27;7.78;;;;;;;9.74;24.41;103335.97;5041321;28;20033;-63
2022/03/18 09:20:01;;;;;;;8.82;8.32;;;;;;;8.79;26.24;103334.03;5010761;28;20117;-63
2022/03/18 09:22:27;;;;;;;8.48;8.07;;;;;;;11.04;23.52;103343.03;5011246;28;20057;-64
2022/03/18 09:24:52;;;;;;;8.43;8.02;;;;;;;10.41;24.21;103322.66;5011189;28;20389;-64
2022/03/18 09:27:18;;;;;;;8.25;7.85;;;;;;;10.98;23.32;103339.00;5011208;28;20073;-64
2022/03/18 09:29:43;;;;;;;8.02;7.63;;;;;;;10.75;23.16;103340.63;5026425;28;20034;-64
2022/03/18 09:32:09;;;;;;;8.32;7.93;;;;;;;8.02;25.34;103327.19;5010886;28;20029;-63
2022/03/18 09:34:35;;;;;;;8.40;8.00;;;;;;;10.15;23.38;103343.84;5010888;28;20101;-64
2022/03/18 09:37:02;;;;;;;8.90;8.40;;;;;;;9.95;23.43;103344.31;5026161;28;20594;-64
2022/03/18 09:39:28;;;;;;;7.50;7.18;;;;;;;8.56;24.10;103338.09;5011039;28;20026;-64
2022/03/18 09:41:55;;;;;;;8.73;8.23;;;;;;;9.72;24.44;103335.22;5023771;28;20550;-64
2022/03/18 09:44:21;;;;;;;8.65;8.15;;;;;;;10.42;23.66;103343.78;5034404;28;20039;-65
2022/03/18 09:46:50;;;;;;;7.43;7.13;;;;;;;8.57;25.65;103345.06;5032965;28;20029;-63
2022/03/18 09:49:18;;;;;;;8.25;7.85;;;;;;;8.97;25.46;103345.31;5034503;28;20040;-63
2022/03/18 09:51:45;;;;;;;7.72;7.32;;;;;;;8.37;26.18;103339.28;5034310;28;20533;-63
2022/03/18 09:54:15;;;;;;;7.82;7.43;;;;;;;8.52;25.61;103339.25;5034084;28;20049;-64
2022/03/18 09:56:42;;;;;;;8.73;8.23;;;;;;;4.44;31.09;103340.94;5034075;28;20037;-63
2022/03/18 09:59:08;;;;;;;8.65;8.15;;;;;;;5.09;29.36;103337.16;5034253;28;20047;-64
2022/03/18 10:01:34;;;;;;;9.82;9.23;;;;;;;5.25;30.13;103345.22;5020009;28;20104;-65
2022/03/18 10:04:07;;;;;;;9.10;8.60;;;;;;;3.91;31.53;103336.16;5033384;28;20021;-63
2022/03/18 10:06:34;;;;;;;8.90;8.40;;;;;;;2.94;32.73;103364.41;5032967;28;20021;-64
2022/03/18 10:09:00;;;;;;;9.15;8.65;;;;;;;2.73;33.09;103347.69;5033794;28;20022;-64
2022/03/18 10:11:28;;;;;;;8.65;8.15;;;;;;;4.47;31.18;103353.09;5053457;28;20033;-63
2022/03/18 10:14:07;;;;;;;9.18;8.68;;;;;;;4.44;31.31;103343.56;5043633;28;20033;-65
2022/03/18 10:16:36;;;;;;;8.13;7.72;;;;;;;4.81;31.08;103339.34;5014165;28;20033;-63
2022/03/18 10:19:07;;;;;;;7.82;7.43;;;;;;;4.16;31.41;103336.00;5013934;28;20026;-63
2022/03/18 10:21:33;;;;;;;8.32;7.85;;;;;;;4.83;30.96;103340.13;5013989;28;20033;-63
2022/03/18 10:24:07;;;;;;;8.02;7.63;;;;;;;3.72;32.66;103353.56;5014069;28;20033;-63
2022/03/18 10:26:37;;;;;;;7.70;7.30;;;;;;;4.22;31.30;103332.25;5014011;28;20033;-63
2022/03/18 10:29:04;;;;;;;9.10;8.60;;;;;;;4.59;31.06;103334.16;5013765;28;20026;-63
2022/03/18 10:31:30;;;;;;;8.05;7.65;;;;;;;3.88;32.53;103345.00;5013722;28;20512;-64
2022/03/18 10:37:07;;;;;;;9.13;8.57;;;;;;;3.26;33.25;103347.47;5013394;28;20032;-63
2022/03/18 10:39:43;;;;;;;7.85;7.45;;;;;;;4.52;32.45;103328.31;5013486;28;20030;-62
2022/03/18 10:42:10;;;;;;;7.70;7.30;;;;;;;3.92;32.42;103331.78;5019456;28;20357;-63
2022/03/18 10:44:51;;;;;;;7.75;7.35;;;;;;;4.22;32.32;103327.88;5033360;28;20037;-64
2022/03/18 10:47:40;;;;;;;8.55;8.05;;;;;;;4.48;31.93;103328.50;5033361;28;20032;-63
2022/03/18 10:50:11;;;;;;;7.60;7.20;;;;;;;3.32;32.98;103337.63;5033598;28;20025;-63
2022/03/18 10:52:38;;;;;;;8.43;7.93;;;;;;;4.25;31.89;103318.97;5032402;28;20061;-63
2022/03/18 10:55:23;;;;;;;8.55;8.05;;;;;;;4.28;32.14;103324.13;5042781;28;20044;-63
2022/03/18 10:58:01;;;;;;;8.55;8.05;;;;;;;4.24;32.31;103320.75;5020121;28;20488;-63
2022/03/18 11:00:38;;;;;;;7.47;7.07;;;;;;;5.03;31.49;103326.06;5031487;28;20388;-63
2022/03/18 11:03:04;;;;;;;8.73;8.23;;;;;;;2.93;33.47;103350.44;5032994;28;20027;-64
2022/03/18 11:05:30;;;;;;;7.95;7.55;;;;;;;3.35;33.93;103343.66;5056736;28;20052;-64
2022/03/18 11:07:59;;;;;;;7.32;7.00;;;;;;;2.96;34.24;103346.84;5013182;28;20355;-63
2022/03/18 11:13:12;;;;;;;7.50;7.10;;;;;;;3.60;34.32;103326.91;5033231;28;20052;-63
2022/03/18 11:15:43;;;;;;;7.82;7.43;;;;;;;5.33;32.17;103319.38;5033024;28;20033;-63
2022/03/18 11:18:11;;;;;;;7.43;7.03;;;;;;;4.23;33.22;103321.69;5032967;28;20488;-64
2022/03/18 11:20:42;;;;;;;8.25;7.75;;;;;;;3.49;34.20;103331.69;5031380;28;20051;-63
2022/03/18 11:23:15;;;;;;;7.53;7.13;;;;;;;2.79;34.61;103350.06;5033082;28;20085;-64
2022/03/18 11:25:40;;;;;;;7.10;6.80;;;;;;;3.19;34.67;103331.13;5015823;28;20727;-63
2022/03/18 11:28:06;;;;;;;7.28;6.95;;;;;;;3.95;33.32;103314.09;5013113;28;20033;-63
2022/03/18 11:30:34;;;;;;;7.15;6.82;;;;;;;3.75;33.89;103332.47;5013102;28;20040;-64
2022/03/18 11:33:06;;;;;;;7.95;7.55;;;;;;;3.60;34.41;103333.94;5027991;28;20113;-65
2022/03/18 11:35:50;;;;;;;7.78;7.38;;;;;;;3.71;34.08;103310.72;5012778;28;20029;-63
2022/03/18 11:38:17;;;;;;;7.70;7.30;;;;;;;4.54;32.94;103317.72;5012558;28;20100;-63
2022/03/18 11:40:58;;;;;;;7.53;7.13;;;;;;;2.94;34.12;103340.81;5032078;28;20033;-64